Time;durP1;ratioP1;P1;durP2;ratioP2;P2;SDS_P1;SDS_P2;PMS_P1;PMS_P2;Temp;Humidity;BMP_temperature;BMP_pressure;BME280_temperature;BME280_humidity;BME280_pressure;Samples;Min_cycle;Max_cycle;Signal;HPM_P1;HPM_P2
2022/07/24 00:02:23;;;;;;;4.07;2.95;;;16.60;99.90;;;;;;4996259;28;20120;-69
2022/07/24 00:04:56;;;;;;;3.88;2.85;;;16.50;99.90;;;;;;4995936;28;20430;-73
2022/07/24 00:07:24;;;;;;;4.03;2.55;;;16.50;99.90;;;;;;4994353;28;20461;-69
2022/07/24 00:09:51;;;;;;;3.70;3.42;;;16.60;99.90;;;;;;4993428;28;20623;-68
2022/07/24 00:12:18;;;;;;;6.75;4.00;;;16.60;99.90;;;;;;4987964;28;20112;-72
2022/07/24 00:14:45;;;;;;;2.10;1.98;;;16.50;99.90;;;;;;5002210;28;20138;-69
2022/07/24 00:17:12;;;;;;;3.95;2.70;;;16.50;99.90;;;;;;4991857;28;20077;-67
2022/07/24 00:19:39;;;;;;;2.85;2.65;;;16.50;99.90;;;;;;4999284;28;20042;-68
2022/07/24 00:22:05;;;;;;;5.05;2.88;;;16.50;99.90;;;;;;4993117;28;20074;-72
2022/07/24 00:24:32;;;;;;;3.33;3.03;;;16.40;99.90;;;;;;5001934;28;20050;-67
2022/07/24 00:27:00;;;;;;;2.53;2.33;;;16.40;99.90;;;;;;4989090;28;20788;-68
2022/07/24 00:29:28;;;;;;;3.40;3.20;;;16.40;99.90;;;;;;4988208;28;20050;-76
2022/07/24 00:31:55;;;;;;;3.05;2.50;;;16.40;99.90;;;;;;4997736;28;20095;-70
2022/07/24 00:34:22;;;;;;;2.38;2.28;;;16.40;99.90;;;;;;5004171;28;20157;-67
2022/07/24 00:36:49;;;;;;;2.63;2.42;;;16.30;99.90;;;;;;5003606;28;20374;-74
2022/07/24 00:39:16;;;;;;;3.05;2.50;;;16.30;99.90;;;;;;4990454;28;20037;-67
2022/07/24 00:41:43;;;;;;;2.70;2.50;;;16.30;99.90;;;;;;4983595;28;20382;-69
2022/07/24 00:44:15;;;;;;;2.40;2.05;;;16.20;99.90;;;;;;4983496;28;20078;-71
2022/07/24 00:46:44;;;;;;;2.15;1.90;;;16.20;99.90;;;;;;4985774;28;20042;-71
2022/07/24 00:49:14;;;;;;;2.38;2.10;;;16.20;99.90;;;;;;4979409;28;20082;-67
2022/07/24 00:51:45;;;;;;;2.40;2.20;;;16.20;99.90;;;;;;4978928;28;20417;-67
2022/07/24 00:54:14;;;;;;;1.55;1.45;;;16.10;99.90;;;;;;4984672;28;20440;-67
2022/07/24 00:56:43;;;;;;;6.55;2.40;;;16.10;99.90;;;;;;4995283;28;20157;-67
2022/07/24 00:59:10;;;;;;;2.38;1.55;;;16.00;99.90;;;;;;5001945;28;20100;-67
2022/07/24 01:01:38;;;;;;;4.50;1.70;;;16.00;99.90;;;;;;5003025;28;20054;-67
2022/07/24 01:04:05;;;;;;;3.00;1.98;;;16.00;99.90;;;;;;5002432;28;20057;-75
2022/07/24 01:06:32;;;;;;;1.95;1.73;;;16.00;99.90;;;;;;5006595;28;20701;-67
2022/07/24 01:09:00;;;;;;;4.07;2.00;;;16.00;99.90;;;;;;4996870;28;20751;-69
2022/07/24 01:11:28;;;;;;;6.13;3.05;;;16.00;99.90;;;;;;5003406;28;20046;-73
2022/07/24 01:13:55;;;;;;;1.80;1.70;;;15.90;99.90;;;;;;5001949;28;20085;-67
2022/07/24 01:16:22;;;;;;;4.03;1.55;;;15.90;99.90;;;;;;4998917;28;20046;-66
2022/07/24 01:18:49;;;;;;;4.22;2.95;;;15.90;99.90;;;;;;5000711;28;20034;-74
2022/07/24 01:21:16;;;;;;;1.50;1.40;;;15.90;99.90;;;;;;4995836;28;20108;-66
2022/07/24 01:23:45;;;;;;;1.35;1.25;;;15.90;99.90;;;;;;4997118;28;20776;-69
2022/07/24 01:26:12;;;;;;;2.72;1.25;;;15.90;99.90;;;;;;4999063;28;20050;-68
2022/07/24 01:28:39;;;;;;;2.72;1.60;;;15.90;99.90;;;;;;5000950;28;20132;-67
2022/07/24 01:31:06;;;;;;;1.92;1.73;;;15.80;99.90;;;;;;5001419;28;20049;-67
2022/07/24 01:33:33;;;;;;;2.10;2.00;;;15.80;99.90;;;;;;5005910;28;20112;-74
2022/07/24 01:36:00;;;;;;;2.22;1.58;;;15.80;99.90;;;;;;5000443;28;20070;-66
2022/07/24 01:38:27;;;;;;;2.15;1.48;;;15.80;99.90;;;;;;5002243;28;20068;-66
2022/07/24 01:40:54;;;;;;;2.85;1.65;;;15.80;99.90;;;;;;4997305;28;20058;-70
2022/07/24 01:43:21;;;;;;;1.60;1.50;;;15.80;99.90;;;;;;5004155;28;20411;-66
2022/07/24 01:45:48;;;;;;;1.50;1.40;;;15.80;99.90;;;;;;5003697;28;20557;-67
2022/07/24 01:48:16;;;;;;;2.40;2.20;;;15.80;99.90;;;;;;5005009;28;20099;-74
2022/07/24 01:50:43;;;;;;;1.63;1.52;;;15.80;99.90;;;;;;5003647;28;20042;-67
2022/07/24 01:53:10;;;;;;;2.08;1.88;;;15.80;99.90;;;;;;5004238;28;20448;-68
2022/07/24 01:55:37;;;;;;;2.47;2.10;;;15.80;99.90;;;;;;4991944;28;20113;-69
2022/07/24 01:58:04;;;;;;;2.03;1.92;;;15.80;99.90;;;;;;5000320;28;20121;-68
2022/07/24 02:00:30;;;;;;;2.20;2.08;;;15.80;99.90;;;;;;5003639;28;20050;-66
2022/07/24 02:02:59;;;;;;;2.35;2.15;;;15.80;99.90;;;;;;4995972;28;20050;-72
2022/07/24 02:05:26;;;;;;;2.65;2.45;;;15.80;99.90;;;;;;5006415;28;20128;-67
2022/07/24 02:07:58;;;;;;;4.43;2.33;;;15.90;99.90;;;;;;5006591;28;20137;-67
2022/07/24 02:10:27;;;;;;;3.90;2.28;;;15.90;99.90;;;;;;4995152;28;20046;-67
2022/07/24 02:12:55;;;;;;;2.05;1.95;;;15.90;99.90;;;;;;4993433;28;20107;-70
2022/07/24 02:15:25;;;;;;;1.92;1.83;;;15.90;99.90;;;;;;5001806;28;20140;-73
2022/07/24 02:17:54;;;;;;;2.40;2.20;;;15.90;99.90;;;;;;4998248;28;20164;-68
2022/07/24 02:20:22;;;;;;;2.35;2.20;;;16.00;99.90;;;;;;4998522;28;20057;-71
2022/07/24 02:22:49;;;;;;;3.10;1.50;;;16.00;99.90;;;;;;4992826;28;20482;-69
2022/07/24 02:25:16;;;;;;;2.15;2.03;;;15.90;99.90;;;;;;4996225;28;20121;-69
2022/07/24 02:27:43;;;;;;;2.00;1.90;;;15.90;99.90;;;;;;4999053;28;20060;-68
2022/07/24 02:30:13;;;;;;;1.75;1.65;;;16.00;99.90;;;;;;5005470;28;20046;-68
2022/07/24 02:32:40;;;;;;;5.40;2.67;;;16.00;99.90;;;;;;4991226;28;20286;-75
2022/07/24 02:35:07;;;;;;;2.13;1.92;;;16.00;99.90;;;;;;4994857;28;20055;-66
2022/07/24 02:37:39;;;;;;;2.63;2.42;;;16.10;99.90;;;;;;4999666;28;20097;-66
2022/07/24 02:40:07;;;;;;;3.30;1.92;;;16.10;99.90;;;;;;5004268;28;20061;-66
2022/07/24 02:42:36;;;;;;;2.50;2.00;;;16.00;99.90;;;;;;4996544;28;20113;-66
2022/07/24 02:45:04;;;;;;;1.40;1.10;;;16.00;99.90;;;;;;4990920;28;20164;-78
2022/07/24 02:47:31;;;;;;;2.75;1.23;;;15.90;99.90;;;;;;4989564;28;20076;-68
2022/07/24 02:49:58;;;;;;;1.70;1.08;;;15.90;99.90;;;;;;4991974;28;20447;-66
2022/07/24 02:52:25;;;;;;;1.45;1.40;;;15.80;99.90;;;;;;4995757;28;20826;-68
2022/07/24 02:54:52;;;;;;;1.08;1.00;;;15.80;99.90;;;;;;4996860;28;20472;-67
2022/07/24 02:57:19;;;;;;;1.90;1.73;;;15.70;99.90;;;;;;4996407;28;20030;-67
2022/07/24 02:59:51;;;;;;;1.58;1.48;;;15.70;99.90;;;;;;4993179;28;20492;-70
2022/07/24 03:02:19;;;;;;;0.80;0.80;;;15.70;99.90;;;;;;5008872;28;20056;-70
2022/07/24 03:04:46;;;;;;;1.30;1.23;;;15.60;99.90;;;;;;4996788;28;20072;-69
2022/07/24 03:07:14;;;;;;;4.10;1.45;;;15.60;99.90;;;;;;5000783;28;20611;-66
2022/07/24 03:09:41;;;;;;;1.10;1.10;;;15.60;99.90;;;;;;5000390;28;20123;-66
2022/07/24 03:12:08;;;;;;;1.50;1.35;;;15.60;99.90;;;;;;5005399;28;20065;-69
2022/07/24 03:14:35;;;;;;;2.22;0.95;;;15.60;99.90;;;;;;4992082;28;20037;-79
2022/07/24 03:17:02;;;;;;;2.33;1.13;;;15.50;99.90;;;;;;4996137;28;20046;-66
2022/07/24 03:19:29;;;;;;;0.80;0.80;;;15.50;99.90;;;;;;5009692;28;20690;-66
2022/07/24 03:21:56;;;;;;;1.20;0.90;;;15.50;99.90;;;;;;5006181;28;20094;-67
2022/07/24 03:24:23;;;;;;;3.35;1.25;;;15.50;99.90;;;;;;5001999;28;20042;-69
2022/07/24 03:26:50;;;;;;;2.20;1.90;;;15.50;99.90;;;;;;5006571;28;20072;-66
2022/07/24 03:29:18;;;;;;;0.90;0.90;;;15.50;99.90;;;;;;5005924;28;21572;-66
2022/07/24 03:31:45;;;;;;;0.93;0.93;;;15.60;99.90;;;;;;4992699;28;20108;-67
2022/07/24 03:34:12;;;;;;;1.25;0.85;;;15.60;99.90;;;;;;5005376;28;20046;-66
2022/07/24 03:36:39;;;;;;;1.60;0.88;;;15.60;99.90;;;;;;5004983;28;20069;-73
2022/07/24 03:39:06;;;;;;;1.70;1.30;;;15.60;99.90;;;;;;5002370;28;20116;-67
2022/07/24 03:41:34;;;;;;;1.33;1.15;;;15.70;99.90;;;;;;5003938;28;20053;-66
2022/07/24 03:44:01;;;;;;;1.27;1.17;;;15.80;99.90;;;;;;5005760;28;20073;-69
2022/07/24 03:46:28;;;;;;;1.52;1.10;;;15.80;99.90;;;;;;5008536;28;20042;-79
2022/07/24 03:48:56;;;;;;;2.38;1.00;;;15.90;99.90;;;;;;5004135;28;20053;-74
2022/07/24 03:51:24;;;;;;;1.48;1.35;;;16.00;99.90;;;;;;5004330;28;20050;-66
2022/07/24 03:53:53;;;;;;;2.22;1.02;;;16.00;99.90;;;;;;5004017;28;20037;-67
2022/07/24 03:56:21;;;;;;;1.52;1.42;;;16.10;99.90;;;;;;4993570;28;20307;-66
2022/07/24 03:58:52;;;;;;;0.98;0.98;;;16.10;99.90;;;;;;4998713;28;20035;-69
2022/07/24 04:01:20;;;;;;;2.28;0.90;;;16.10;99.90;;;;;;5001952;28;20054;-71
2022/07/24 04:03:47;;;;;;;2.65;1.30;;;16.10;99.90;;;;;;4990131;28;20041;-66
2022/07/24 04:06:14;;;;;;;0.80;0.80;;;16.10;99.90;;;;;;5001626;28;20050;-67
2022/07/24 04:08:41;;;;;;;1.05;1.05;;;16.20;99.90;;;;;;5006786;28;20433;-71
2022/07/24 04:11:08;;;;;;;0.85;0.82;;;16.20;99.90;;;;;;4989442;28;20088;-69
2022/07/24 04:13:35;;;;;;;1.65;1.33;;;16.20;99.90;;;;;;5006593;28;20638;-69
2022/07/24 04:16:08;;;;;;;1.00;1.00;;;16.30;99.90;;;;;;4999409;28;20060;-70
2022/07/24 04:18:36;;;;;;;1.92;0.70;;;16.30;99.90;;;;;;5002850;28;20061;-72
2022/07/24 04:21:03;;;;;;;0.80;0.80;;;16.30;99.90;;;;;;4989665;28;20042;-71
2022/07/24 04:23:30;;;;;;;0.98;0.90;;;16.30;99.90;;;;;;5003670;28;20084;-67
2022/07/24 04:25:57;;;;;;;1.80;0.95;;;16.40;99.90;;;;;;5000131;28;20433;-75
2022/07/24 04:28:24;;;;;;;6.45;1.30;;;16.40;99.90;;;;;;4993937;28;20038;-69
2022/07/24 04:30:51;;;;;;;0.98;0.98;;;16.40;99.90;;;;;;4990736;28;20884;-67
2022/07/24 04:33:18;;;;;;;1.52;1.42;;;16.50;99.90;;;;;;4993921;28;20050;-76
2022/07/24 04:35:45;;;;;;;2.70;1.05;;;16.50;99.90;;;;;;4991721;28;20054;-68
2022/07/24 04:38:12;;;;;;;1.35;1.25;;;16.60;99.90;;;;;;4993716;28;20047;-67
2022/07/24 04:40:39;;;;;;;2.78;1.17;;;16.60;99.90;;;;;;5005821;28;20054;-75
2022/07/24 04:43:06;;;;;;;2.00;0.85;;;16.60;99.90;;;;;;4993361;28;20092;-67
2022/07/24 04:45:37;;;;;;;0.93;0.82;;;16.70;99.90;;;;;;4991320;28;20057;-68
2022/07/24 04:48:05;;;;;;;0.75;0.75;;;16.70;99.90;;;;;;5001728;28;20074;-70
2022/07/24 04:50:33;;;;;;;1.30;1.20;;;16.80;99.90;;;;;;4998653;28;20105;-74
2022/07/24 04:53:00;;;;;;;1.20;0.68;;;16.80;99.90;;;;;;4996352;28;20796;-73
2022/07/24 04:55:27;;;;;;;1.00;0.90;;;16.80;99.90;;;;;;4997154;28;20042;-68
2022/07/24 04:57:54;;;;;;;0.90;0.90;;;16.80;99.90;;;;;;5000120;28;20372;-69
2022/07/24 05:00:21;;;;;;;1.35;0.80;;;16.90;99.90;;;;;;4998395;28;20088;-69
2022/07/24 05:02:48;;;;;;;1.48;0.88;;;16.90;99.90;;;;;;4995814;28;20104;-67
2022/07/24 05:05:15;;;;;;;1.00;0.80;;;16.90;99.90;;;;;;4998015;28;20050;-68
2022/07/24 05:07:42;;;;;;;2.72;0.95;;;16.90;99.90;;;;;;4991981;28;20406;-67
2022/07/24 05:10:10;;;;;;;2.45;0.93;;;17.00;99.90;;;;;;4995346;28;20108;-70
2022/07/24 05:12:37;;;;;;;0.82;0.82;;;17.00;99.90;;;;;;5001573;28;20135;-68
2022/07/24 05:15:05;;;;;;;2.08;0.73;;;17.00;99.90;;;;;;4992738;28;20135;-69
2022/07/24 05:17:34;;;;;;;1.42;1.17;;;17.00;99.90;;;;;;4996982;28;20096;-66
2022/07/24 05:20:05;;;;;;;1.45;1.05;;;17.00;99.90;;;;;;4996331;28;20777;-67
2022/07/24 05:22:32;;;;;;;2.58;1.70;;;17.10;99.90;;;;;;4986855;28;20158;-72
2022/07/24 05:24:59;;;;;;;1.08;0.93;;;17.10;99.90;;;;;;4984226;28;20419;-67
2022/07/24 05:27:26;;;;;;;1.13;0.80;;;17.20;99.90;;;;;;4997230;28;20052;-69
2022/07/24 05:29:53;;;;;;;1.58;1.48;;;17.20;99.90;;;;;;4994273;28;20054;-69
2022/07/24 05:32:20;;;;;;;1.35;1.20;;;17.30;99.90;;;;;;4996251;28;20057;-74
2022/07/24 05:34:47;;;;;;;1.08;0.98;;;17.40;99.90;;;;;;5004924;28;20050;-68
2022/07/24 05:37:14;;;;;;;1.00;0.90;;;17.50;99.90;;;;;;4997340;28;20069;-68
2022/07/24 05:39:40;;;;;;;1.00;0.90;;;17.60;99.90;;;;;;4990744;28;20594;-69
2022/07/24 05:42:07;;;;;;;0.70;0.70;;;17.50;99.90;;;;;;4995543;28;20124;-73
2022/07/24 05:44:34;;;;;;;0.70;0.70;;;17.50;99.90;;;;;;4996465;28;20137;-66
2022/07/24 05:47:01;;;;;;;1.88;1.38;;;17.50;99.90;;;;;;4998914;28;20275;-66
2022/07/24 05:49:28;;;;;;;0.80;0.80;;;17.50;99.90;;;;;;5002859;28;20041;-70
2022/07/24 05:51:55;;;;;;;1.13;1.08;;;17.50;99.90;;;;;;5003077;28;20050;-69
2022/07/24 05:54:22;;;;;;;1.70;1.00;;;17.50;99.90;;;;;;4999281;28;20099;-74
2022/07/24 05:56:49;;;;;;;0.75;0.68;;;17.60;99.90;;;;;;5001379;28;20124;-68
2022/07/24 05:59:16;;;;;;;1.40;1.23;;;17.50;99.90;;;;;;4998596;28;20073;-67
2022/07/24 06:01:43;;;;;;;2.80;1.42;;;17.60;99.90;;;;;;4997018;28;20049;-68
2022/07/24 06:04:10;;;;;;;1.73;0.90;;;17.60;99.90;;;;;;4997086;28;20037;-68
2022/07/24 06:06:37;;;;;;;1.25;1.02;;;17.70;99.90;;;;;;5002920;28;20061;-68
2022/07/24 06:09:04;;;;;;;0.82;0.73;;;17.70;99.90;;;;;;4999394;28;20096;-69
2022/07/24 06:11:32;;;;;;;1.33;0.75;;;17.60;99.90;;;;;;4991239;28;20058;-69
2022/07/24 06:13:59;;;;;;;1.45;0.77;;;17.60;99.90;;;;;;4996963;28;20357;-69
2022/07/24 06:16:26;;;;;;;2.80;0.90;;;17.60;99.90;;;;;;5001989;28;20053;-67
2022/07/24 06:18:53;;;;;;;1.33;0.90;;;17.50;99.90;;;;;;5006024;28;20210;-67
2022/07/24 06:21:20;;;;;;;1.77;1.00;;;17.50;99.90;;;;;;5000888;28;20053;-68
2022/07/24 06:23:47;;;;;;;1.27;0.90;;;17.50;99.90;;;;;;5007429;28;20041;-68
2022/07/24 06:26:14;;;;;;;1.63;0.70;;;17.50;99.90;;;;;;4997188;28;20088;-74
2022/07/24 06:28:41;;;;;;;1.15;0.98;;;17.50;99.90;;;;;;5000518;28;20046;-69
2022/07/24 06:31:08;;;;;;;1.20;1.10;;;17.60;99.90;;;;;;4997859;28;20057;-67
2022/07/24 06:33:43;;;;;;;1.42;1.10;;;17.60;99.90;;;;;;4996871;28;20081;-67
2022/07/24 06:36:10;;;;;;;1.33;0.98;;;17.60;99.90;;;;;;4993660;28;20052;-72
2022/07/24 06:38:37;;;;;;;1.40;0.98;;;17.60;99.90;;;;;;4994171;28;20046;-67
2022/07/24 06:41:04;;;;;;;2.75;0.85;;;17.60;99.90;;;;;;4995450;28;20070;-67
2022/07/24 06:43:31;;;;;;;1.20;1.10;;;17.70;99.90;;;;;;4989113;28;20429;-67
2022/07/24 06:45:58;;;;;;;1.05;0.98;;;17.70;99.90;;;;;;5003153;28;20126;-70
2022/07/24 06:48:25;;;;;;;3.28;1.20;;;17.70;99.90;;;;;;5002756;28;20128;-68
2022/07/24 06:50:52;;;;;;;2.50;1.38;;;17.80;99.90;;;;;;5002446;28;20050;-69
2022/07/24 06:53:19;;;;;;;0.75;0.75;;;17.80;99.90;;;;;;5002761;28;20057;-67
2022/07/24 06:55:47;;;;;;;1.20;0.88;;;17.80;99.90;;;;;;5005713;28;20162;-65
2022/07/24 06:58:14;;;;;;;1.33;1.13;;;17.80;99.90;;;;;;4999999;28;20037;-72
2022/07/24 07:00:41;;;;;;;1.20;1.10;;;17.90;99.90;;;;;;5002688;28;20038;-69
2022/07/24 07:03:08;;;;;;;4.15;2.60;;;18.00;99.90;;;;;;4999631;28;20156;-67
2022/07/24 07:05:35;;;;;;;2.88;1.13;;;18.10;99.90;;;;;;5005336;28;20137;-66
2022/07/24 07:08:02;;;;;;;1.38;1.27;;;18.10;99.90;;;;;;5010945;28;20060;-66
2022/07/24 07:10:30;;;;;;;1.30;1.20;;;18.00;99.90;;;;;;5007763;28;20742;-69
2022/07/24 07:12:57;;;;;;;2.35;1.20;;;18.10;99.90;;;;;;4995339;28;20207;-66
2022/07/24 07:15:23;;;;;;;1.40;1.10;;;18.10;99.90;;;;;;4991345;28;20214;-66
2022/07/24 07:17:51;;;;;;;1.35;1.25;;;18.20;99.90;;;;;;4998278;28;20046;-68
2022/07/24 07:20:18;;;;;;;1.58;1.27;;;18.20;99.90;;;;;;4994855;28;20042;-66
2022/07/24 07:22:45;;;;;;;1.80;1.10;;;18.30;99.90;;;;;;4996240;28;20081;-66
2022/07/24 07:25:12;;;;;;;1.30;1.20;;;18.30;99.90;;;;;;4995975;28;20050;-67
2022/07/24 07:27:39;;;;;;;1.17;1.08;;;18.30;99.90;;;;;;4994878;28;20127;-67
2022/07/24 07:30:09;;;;;;;1.77;1.10;;;18.40;99.90;;;;;;4995666;28;20053;-74
2022/07/24 07:32:36;;;;;;;1.30;1.20;;;18.40;99.90;;;;;;4983908;28;20058;-67
2022/07/24 07:35:03;;;;;;;4.65;1.10;;;18.40;99.90;;;;;;4980114;28;20154;-67
2022/07/24 07:37:31;;;;;;;1.58;1.13;;;18.30;99.90;;;;;;4977249;28;20207;-67
2022/07/24 07:39:58;;;;;;;1.45;1.30;;;18.30;99.90;;;;;;4976125;28;20055;-68
2022/07/24 07:42:25;;;;;;;3.00;1.00;;;18.40;99.90;;;;;;4975724;28;20063;-68
2022/07/24 07:44:52;;;;;;;2.35;1.35;;;18.50;99.90;;;;;;4973656;28;20058;-67
2022/07/24 07:47:19;;;;;;;4.55;1.50;;;18.50;99.90;;;;;;4978362;28;20050;-67
2022/07/24 07:49:46;;;;;;;2.63;1.90;;;18.60;99.90;;;;;;4983883;28;20042;-66
2022/07/24 07:52:13;;;;;;;2.45;1.45;;;18.50;99.90;;;;;;4977890;28;20739;-66
2022/07/24 07:54:41;;;;;;;1.80;1.70;;;18.40;99.90;;;;;;4976621;28;20142;-67
2022/07/24 07:57:08;;;;;;;1.73;1.63;;;18.40;99.90;;;;;;4980931;28;20460;-66
2022/07/24 07:59:35;;;;;;;2.20;1.10;;;18.40;99.90;;;;;;4979332;28;20129;-66
2022/07/24 08:02:02;;;;;;;0.90;0.88;;;18.30;99.90;;;;;;4987786;28;20088;-71
2022/07/24 08:04:29;;;;;;;1.77;1.02;;;18.30;99.90;;;;;;4999954;28;20073;-68
2022/07/24 08:06:58;;;;;;;1.13;1.02;;;18.30;99.90;;;;;;5001014;28;20489;-67
2022/07/24 08:09:25;;;;;;;1.40;1.30;;;18.50;99.90;;;;;;4999497;28;20069;-65
2022/07/24 08:11:52;;;;;;;1.42;1.20;;;18.50;99.90;;;;;;5002093;28;20069;-67
2022/07/24 08:14:19;;;;;;;1.08;1.08;;;18.60;99.90;;;;;;5002219;28;20069;-68
2022/07/24 08:16:46;;;;;;;1.20;1.20;;;18.60;99.90;;;;;;5003403;28;20500;-66
2022/07/24 08:19:13;;;;;;;1.08;1.00;;;18.70;99.90;;;;;;4989336;28;20066;-67
2022/07/24 08:21:40;;;;;;;3.72;1.20;;;18.80;99.90;;;;;;5000186;28;20038;-67
2022/07/24 08:24:07;;;;;;;1.67;1.10;;;18.80;99.90;;;;;;4999971;28;20156;-66
2022/07/24 08:26:34;;;;;;;1.02;1.02;;;18.70;99.90;;;;;;5003307;28;20046;-67
2022/07/24 08:29:01;;;;;;;1.40;1.20;;;18.70;99.90;;;;;;4995840;28;20046;-67
2022/07/24 08:31:29;;;;;;;2.38;1.10;;;18.80;99.90;;;;;;5004005;28;20156;-69
2022/07/24 08:33:56;;;;;;;1.20;1.10;;;18.90;99.90;;;;;;4992056;28;20070;-71
2022/07/24 08:36:23;;;;;;;1.48;1.25;;;18.80;99.90;;;;;;4999239;28;20050;-65
2022/07/24 08:38:50;;;;;;;1.35;1.25;;;18.80;99.90;;;;;;4991635;28;20109;-68
2022/07/24 08:41:18;;;;;;;0.82;0.82;;;18.80;99.90;;;;;;4996976;28;20360;-65
2022/07/24 08:43:52;;;;;;;0.93;0.93;;;18.90;99.90;;;;;;4991885;28;20046;-66
2022/07/24 08:46:21;;;;;;;2.50;1.15;;;19.10;99.90;;;;;;4993099;28;20069;-67
2022/07/24 08:48:49;;;;;;;0.80;0.80;;;19.10;99.90;;;;;;4993114;28;20052;-66
2022/07/24 08:51:17;;;;;;;0.90;0.90;;;19.20;99.90;;;;;;4995758;28;20050;-67
2022/07/24 08:53:44;;;;;;;2.78;1.20;;;19.10;99.90;;;;;;5004447;28;20061;-67
2022/07/24 08:56:11;;;;;;;0.98;0.90;;;19.00;99.90;;;;;;4992545;28;20081;-70
2022/07/24 08:58:40;;;;;;;1.15;1.00;;;19.10;99.90;;;;;;4992104;28;20416;-67
2022/07/24 09:01:08;;;;;;;2.00;1.27;;;19.00;99.90;;;;;;4990857;28;20058;-65
2022/07/24 09:03:44;;;;;;;1.23;1.17;;;19.10;99.90;;;;;;4994409;28;20030;-68
2022/07/24 09:06:12;;;;;;;3.22;1.20;;;19.30;99.90;;;;;;4988560;28;20117;-67
2022/07/24 09:08:40;;;;;;;5.30;1.55;;;19.40;99.90;;;;;;4995925;28;20138;-71
2022/07/24 09:11:09;;;;;;;1.27;0.90;;;19.20;99.90;;;;;;4997439;28;20446;-66
2022/07/24 09:16:26;;;;;;;2.17;1.58;;;19.00;99.90;;;;;;5002517;28;20200;-66
2022/07/24 09:19:07;;;;;;;1.00;1.00;;;19.10;99.90;;;;;;5003190;28;21219;-66
2022/07/24 09:21:43;;;;;;;1.85;1.08;;;19.00;99.90;;;;;;4986607;28;20038;-68
2022/07/24 09:24:14;;;;;;;0.90;0.80;;;19.20;99.90;;;;;;4989007;28;20785;-69
2022/07/24 09:26:50;;;;;;;0.80;0.80;;;19.40;99.90;;;;;;5002310;28;20053;-66
2022/07/24 09:29:18;;;;;;;2.55;1.30;;;19.40;99.90;;;;;;4998131;28;20104;-67
2022/07/24 09:32:02;;;;;;;1.17;1.08;;;19.40;99.90;;;;;;4997494;28;20161;-66
2022/07/24 09:34:37;;;;;;;1.40;1.30;;;19.50;99.90;;;;;;4987633;28;20131;-66
2022/07/24 09:37:06;;;;;;;2.00;1.90;;;19.40;99.90;;;;;;5001634;28;20069;-71
2022/07/24 09:39:36;;;;;;;2.78;2.15;;;19.50;99.90;;;;;;4999596;28;20474;-70
2022/07/24 09:42:06;;;;;;;1.33;1.30;;;19.60;99.90;;;;;;5002810;28;20112;-67
2022/07/24 09:44:33;;;;;;;2.50;1.30;;;19.70;99.90;;;;;;4996332;28;20050;-69
2022/07/24 09:47:06;;;;;;;1.17;1.08;;;19.60;99.90;;;;;;4996816;28;20589;-69
2022/07/24 09:49:34;;;;;;;0.95;0.90;;;19.70;99.90;;;;;;5001948;28;20744;-67
2022/07/24 09:52:16;;;;;;;1.83;1.50;;;19.80;99.90;;;;;;5000386;28;20189;-67
2022/07/24 09:54:50;;;;;;;0.95;0.90;;;20.00;99.90;;;;;;4999239;28;20393;-71
2022/07/24 09:57:28;;;;;;;1.40;1.30;;;20.00;99.90;;;;;;4998418;28;20441;-69
2022/07/24 10:00:00;;;;;;;1.52;0.90;;;20.00;99.90;;;;;;4996371;28;20077;-66
2022/07/24 10:02:32;;;;;;;1.70;1.15;;;19.90;99.90;;;;;;4998350;28;20132;-67
2022/07/24 10:05:03;;;;;;;1.48;1.15;;;20.00;99.90;;;;;;4993823;28;20054;-67
2022/07/24 10:07:30;;;;;;;1.80;1.00;;;20.20;99.90;;;;;;4999823;28;20042;-67
2022/07/24 10:09:59;;;;;;;1.20;1.10;;;20.20;99.90;;;;;;4987727;28;20051;-70
2022/07/24 10:12:29;;;;;;;3.60;1.63;;;20.10;99.90;;;;;;4994171;28;20161;-70
2022/07/24 10:14:58;;;;;;;1.38;1.00;;;20.10;99.90;;;;;;5001950;28;20057;-68
2022/07/24 10:18:14;;;;;;;1.50;1.40;;;20.20;99.90;;;;;;5001219;28;20769;-67
2022/07/24 10:20:44;;;;;;;0.80;0.80;;;20.20;99.90;;;;;;5000620;28;20132;-67
2022/07/24 10:23:28;;;;;;;1.52;1.33;;;20.20;99.90;;;;;;5001276;28;20576;-66
2022/07/24 10:26:05;;;;;;;1.05;1.05;;;20.10;99.90;;;;;;4990331;28;20196;-68
2022/07/24 10:28:40;;;;;;;0.77;0.77;;;20.20;99.90;;;;;;4990596;28;20131;-71
2022/07/24 10:31:15;;;;;;;1.48;1.27;;;20.30;99.90;;;;;;4999918;28;20447;-67
2022/07/24 10:33:50;;;;;;;1.52;1.42;;;20.20;99.90;;;;;;4997003;28;20407;-70
2022/07/24 10:36:26;;;;;;;1.35;1.10;;;20.10;99.90;;;;;;4996090;28;20054;-66
2022/07/24 10:39:20;;;;;;;0.98;0.88;;;20.20;99.90;;;;;;4994556;28;20057;-70
2022/07/24 10:42:04;;;;;;;4.20;1.70;;;20.10;99.90;;;;;;4986886;28;20062;-67
2022/07/24 10:44:31;;;;;;;1.40;1.30;;;20.10;99.90;;;;;;4974454;28;20054;-68
2022/07/24 10:46:58;;;;;;;3.85;1.00;;;20.10;99.90;;;;;;4971803;28;20066;-67
2022/07/24 10:49:49;;;;;;;1.58;1.50;;;20.20;99.90;;;;;;4981010;28;20117;-66
2022/07/24 10:52:28;;;;;;;1.08;1.00;;;20.40;99.90;;;;;;4977088;28;20074;-66
2022/07/24 10:55:20;;;;;;;2.63;2.00;;;20.40;99.90;;;;;;4979692;28;20094;-71
2022/07/24 10:57:48;;;;;;;1.10;0.90;;;20.40;99.90;;;;;;4998588;28;20038;-67
2022/07/24 11:00:24;;;;;;;1.05;1.00;;;20.50;99.90;;;;;;4986661;28;20100;-68
2022/07/24 11:03:00;;;;;;;1.25;1.15;;;20.60;99.90;;;;;;4992928;28;20096;-68
2022/07/24 11:05:31;;;;;;;1.95;1.20;;;20.70;99.90;;;;;;5001012;28;20131;-70
2022/07/24 11:08:16;;;;;;;1.05;1.05;;;20.80;99.90;;;;;;5001586;28;20046;-67
2022/07/24 11:10:46;;;;;;;1.90;1.17;;;20.70;99.90;;;;;;4999874;28;20518;-67
2022/07/24 11:13:31;;;;;;;1.30;1.20;;;20.70;99.90;;;;;;4994566;28;20050;-68
2022/07/24 11:16:10;;;;;;;1.85;1.33;;;20.60;99.90;;;;;;4994080;28;20421;-72
2022/07/24 11:19:00;;;;;;;1.00;0.90;;;20.80;99.90;;;;;;4990359;28;20038;-69
2022/07/24 11:21:28;;;;;;;;;;;20.80;99.90;;;;;;4980117;28;20109;-66
2022/07/24 11:24:14;;;;;;;1.83;1.08;;;20.60;99.90;;;;;;4973231;28;19984;-69
2022/07/24 11:26:51;;;;;;;2.13;1.13;;;20.60;99.90;;;;;;4973568;28;20056;-71
2022/07/24 11:29:19;;;;;;;0.90;0.90;;;20.80;99.90;;;;;;4968142;28;20051;-66
2022/07/24 11:31:48;;;;;;;0.85;0.85;;;20.80;99.90;;;;;;4984185;28;20100;-66
2022/07/24 11:34:15;;;;;;;1.55;1.25;;;20.70;99.90;;;;;;4996872;28;20176;-67
2022/07/24 11:36:50;;;;;;;1.10;1.10;;;20.80;99.90;;;;;;4997787;28;20081;-69
2022/07/24 11:39:18;;;;;;;1.55;0.95;;;20.70;99.90;;;;;;4997938;28;20703;-67
2022/07/24 11:41:59;;;;;;;1.02;0.93;;;20.60;99.90;;;;;;5003391;28;20123;-68
2022/07/24 11:44:30;;;;;;;1.63;1.00;;;20.70;99.90;;;;;;4999452;28;20828;-68
2022/07/24 11:47:05;;;;;;;1.17;1.10;;;20.90;99.90;;;;;;5001642;28;20081;-67
2022/07/24 11:49:46;;;;;;;0.93;0.93;;;20.80;99.90;;;;;;4997224;28;20033;-68
2022/07/24 11:52:26;;;;;;;1.80;1.20;;;21.00;99.90;;;;;;4995135;28;20464;-66
2022/07/24 11:54:55;;;;;;;0.98;0.98;;;21.10;99.90;;;;;;4999471;28;20046;-66
2022/07/24 11:57:29;;;;;;;1.17;1.08;;;21.30;99.90;;;;;;4995577;28;20123;-66
2022/07/24 12:00:20;;;;;;;1.00;1.00;;;21.20;99.90;;;;;;4993314;28;20046;-67
2022/07/24 12:02:57;;;;;;;2.60;2.40;;;21.30;99.90;;;;;;5002207;28;21405;-66
2022/07/24 12:05:37;;;;;;;1.48;1.38;;;21.30;99.90;;;;;;4976202;28;20126;-68
2022/07/24 12:08:17;;;;;;;2.28;1.35;;;21.30;99.90;;;;;;4976682;28;20038;-68
2022/07/24 12:10:48;;;;;;;1.67;1.58;;;21.30;99.90;;;;;;4985456;28;20038;-68
2022/07/24 12:13:16;;;;;;;1.83;1.55;;;21.40;99.90;;;;;;4983932;28;20054;-67
2022/07/24 12:15:44;;;;;;;1.85;1.75;;;21.50;99.90;;;;;;4984198;28;20486;-67
2022/07/24 12:18:11;;;;;;;1.42;1.30;;;21.40;99.90;;;;;;4976535;28;20132;-67
2022/07/24 12:20:41;;;;;;;3.33;1.58;;;21.50;99.90;;;;;;4983073;28;20038;-66
2022/07/24 12:23:11;;;;;;;1.90;1.13;;;21.60;99.90;;;;;;4984869;28;20101;-69
2022/07/24 12:25:38;;;;;;;1.15;1.05;;;21.80;99.90;;;;;;4985717;28;20132;-67
2022/07/24 12:28:12;;;;;;;0.80;0.80;;;21.90;99.90;;;;;;4985952;28;20074;-68
2022/07/24 12:30:45;;;;;;;1.95;0.95;;;22.00;99.90;;;;;;4980417;28;20137;-69
2022/07/24 12:33:15;;;;;;;1.15;1.13;;;21.90;99.90;;;;;;4978496;28;20307;-67
2022/07/24 12:36:10;;;;;;;0.95;0.93;;;22.00;99.90;;;;;;4977439;28;20046;-69
2022/07/24 12:38:38;;;;;;;1.10;1.00;;;21.80;99.90;;;;;;4982445;28;20050;-69
2022/07/24 12:41:10;;;;;;;1.60;1.38;;;22.00;99.90;;;;;;4983578;28;20054;-70
2022/07/24 12:43:50;;;;;;;1.48;1.38;;;22.10;99.90;;;;;;4991344;28;20041;-68
2022/07/24 12:46:20;;;;;;;1.38;1.30;;;22.00;99.90;;;;;;4989125;28;20078;-73
2022/07/24 12:49:16;;;;;;;2.13;0.93;;;21.90;99.90;;;;;;4996050;28;20050;-68
2022/07/24 12:51:45;;;;;;;1.30;1.05;;;22.00;99.90;;;;;;4992243;28;20071;-69
2022/07/24 12:54:18;;;;;;;0.95;0.95;;;21.90;99.90;;;;;;4994965;28;20093;-68
2022/07/24 12:56:46;;;;;;;1.13;0.98;;;22.10;99.90;;;;;;5004942;28;20080;-69
2022/07/24 12:59:29;;;;;;;1.00;1.00;;;22.20;99.90;;;;;;4995047;28;20073;-70
2022/07/24 13:01:58;;;;;;;0.60;0.60;;;22.30;99.90;;;;;;4997950;28;20849;-71
2022/07/24 13:04:27;;;;;;;1.15;1.05;;;22.30;99.90;;;;;;5000619;28;20057;-70